sensor_id;sensor_type;location;lat;lon;timestamp;pressure;altitude;pressure_sealevel;temperature;humidity
49709;BME280;35601;55.902;13.606;2023-04-30T00:00:03;100889.31;;;2.41;67.64
49709;BME280;35601;55.902;13.606;2023-04-30T00:02:28;100889.34;;;2.59;68.05
49709;BME280;35601;55.902;13.606;2023-04-30T00:04:54;100893.79;;;2.41;67.82
49709;BME280;35601;55.902;13.606;2023-04-30T00:07:19;100892.62;;;2.61;68.03
49709;BME280;35601;55.902;13.606;2023-04-30T00:09:44;100891.99;;;2.34;68.26
49709;BME280;35601;55.902;13.606;2023-04-30T00:12:10;100897.16;;;2.33;68.02
49709;BME280;35601;55.902;13.606;2023-04-30T00:14:35;100898.86;;;2.51;68.54
49709;BME280;35601;55.902;13.606;2023-04-30T00:17:00;100899.24;;;2.51;68.38
49709;BME280;35601;55.902;13.606;2023-04-30T00:19:25;100898.94;;;2.21;68.81
49709;BME280;35601;55.902;13.606;2023-04-30T00:21:50;100897.10;;;2.24;68.77
49709;BME280;35601;55.902;13.606;2023-04-30T00:24:16;100898.42;;;2.53;68.60
49709;BME280;35601;55.902;13.606;2023-04-30T00:26:41;100900.14;;;2.29;68.49
49709;BME280;35601;55.902;13.606;2023-04-30T00:29:06;100902.97;;;2.49;68.21
49709;BME280;35601;55.902;13.606;2023-04-30T00:31:31;100905.76;;;2.14;68.90
49709;BME280;35601;55.902;13.606;2023-04-30T00:33:57;100907.11;;;2.13;69.31
49709;BME280;35601;55.902;13.606;2023-04-30T00:36:22;100909.21;;;2.38;69.01
49709;BME280;35601;55.902;13.606;2023-04-30T00:38:48;100908.90;;;2.12;69.38
49709;BME280;35601;55.902;13.606;2023-04-30T00:41:13;100912.02;;;2.36;69.50
49709;BME280;35601;55.902;13.606;2023-04-30T00:43:38;100916.35;;;2.31;69.74
49709;BME280;35601;55.902;13.606;2023-04-30T00:46:03;100920.96;;;2.12;69.43
49709;BME280;35601;55.902;13.606;2023-04-30T00:48:29;100920.65;;;2.11;69.88
49709;BME280;35601;55.902;13.606;2023-04-30T00:50:54;100919.82;;;2.17;69.74
49709;BME280;35601;55.902;13.606;2023-04-30T00:53:20;100922.43;;;2.47;69.07
49709;BME280;35601;55.902;13.606;2023-04-30T00:55:46;100927.47;;;2.41;68.70
49709;BME280;35601;55.902;13.606;2023-04-30T00:58:11;100929.60;;;2.46;68.62
49709;BME280;35601;55.902;13.606;2023-04-30T01:00:36;100929.96;;;2.13;68.77
49709;BME280;35601;55.902;13.606;2023-04-30T01:03:01;100932.41;;;2.08;69.83
49709;BME280;35601;55.902;13.606;2023-04-30T01:05:27;100934.14;;;2.06;70.23
49709;BME280;35601;55.902;13.606;2023-04-30T01:07:52;100935.81;;;2.04;70.31
49709;BME280;35601;55.902;13.606;2023-04-30T01:10:17;100936.20;;;2.27;70.77
49709;BME280;35601;55.902;13.606;2023-04-30T01:12:48;100936.91;;;2.00;70.78
49709;BME280;35601;55.902;13.606;2023-04-30T01:15:13;100934.49;;;1.99;70.62
49709;BME280;35601;55.902;13.606;2023-04-30T01:17:38;100940.25;;;1.99;70.88
49709;BME280;35601;55.902;13.606;2023-04-30T01:19:58;100941.66;;;1.96;70.91
49709;BME280;35601;55.902;13.606;2023-04-30T01:22:35;100945.22;;;2.18;70.87
49709;BME280;35601;55.902;13.606;2023-04-30T01:25:12;100945.77;;;2.15;71.07
49709;BME280;35601;55.902;13.606;2023-04-30T01:27:24;100950.49;;;2.06;71.77
49709;BME280;35601;55.902;13.606;2023-04-30T01:29:41;100946.92;;;2.11;71.18
49709;BME280;35601;55.902;13.606;2023-04-30T01:32:04;100948.31;;;1.96;71.38
49709;BME280;35601;55.902;13.606;2023-04-30T01:34:30;100948.90;;;1.95;71.37
49709;BME280;35601;55.902;13.606;2023-04-30T01:37:06;100947.24;;;1.92;71.59
49709;BME280;35601;55.902;13.606;2023-04-30T01:39:34;100948.74;;;1.97;71.17
49709;BME280;35601;55.902;13.606;2023-04-30T01:41:53;100950.45;;;2.02;70.96
49709;BME280;35601;55.902;13.606;2023-04-30T01:44:22;100953.32;;;1.95;70.43
49709;BME280;35601;55.902;13.606;2023-04-30T01:46:36;100956.12;;;1.72;70.07
49709;BME280;35601;55.902;13.606;2023-04-30T01:49:07;100955.99;;;2.10;70.96
49709;BME280;35601;55.902;13.606;2023-04-30T01:51:32;100953.82;;;1.68;70.37
49709;BME280;35601;55.902;13.606;2023-04-30T01:53:56;100956.47;;;1.88;70.68
49709;BME280;35601;55.902;13.606;2023-04-30T01:56:22;100955.60;;;1.87;70.19
49709;BME280;35601;55.902;13.606;2023-04-30T01:58:44;100956.57;;;1.89;69.78
49709;BME280;35601;55.902;13.606;2023-04-30T02:03:33;100962.74;;;1.78;70.72
49709;BME280;35601;55.902;13.606;2023-04-30T02:05:58;100962.30;;;1.79;70.41
49709;BME280;35601;55.902;13.606;2023-04-30T02:08:25;100962.47;;;2.02;69.94
49709;BME280;35601;55.902;13.606;2023-04-30T02:10:50;100963.23;;;1.98;69.75
49709;BME280;35601;55.902;13.606;2023-04-30T02:13:16;100967.01;;;0.99;69.59
49709;BME280;35601;55.902;13.606;2023-04-30T02:15:40;100968.83;;;0.54;68.86
49709;BME280;35601;55.902;13.606;2023-04-30T02:18:05;100969.27;;;1.89;68.10
49709;BME280;35601;55.902;13.606;2023-04-30T02:20:31;100971.65;;;1.83;68.12
49709;BME280;35601;55.902;13.606;2023-04-30T02:22:56;100974.34;;;1.65;69.23
49709;BME280;35601;55.902;13.606;2023-04-30T02:25:22;100973.73;;;1.52;69.12
49709;BME280;35601;55.902;13.606;2023-04-30T02:27:48;100975.03;;;1.70;69.41
49709;BME280;35601;55.902;13.606;2023-04-30T02:30:13;100976.51;;;1.59;69.80
49709;BME280;35601;55.902;13.606;2023-04-30T02:32:39;100979.91;;;1.31;70.47
49709;BME280;35601;55.902;13.606;2023-04-30T02:35:05;100981.53;;;1.52;70.39
49709;BME280;35601;55.902;13.606;2023-04-30T02:37:28;100982.92;;;1.53;70.38
49709;BME280;35601;55.902;13.606;2023-04-30T02:39:54;100985.97;;;1.32;71.65
49709;BME280;35601;55.902;13.606;2023-04-30T02:42:19;100986.51;;;1.50;73.17
49709;BME280;35601;55.902;13.606;2023-04-30T02:44:46;100989.26;;;1.48;73.26
49709;BME280;35601;55.902;13.606;2023-04-30T02:47:10;100992.87;;;1.45;73.45
49709;BME280;35601;55.902;13.606;2023-04-30T02:49:35;100991.90;;;1.48;73.30
49709;BME280;35601;55.902;13.606;2023-04-30T02:52:01;100990.50;;;1.24;73.13
49709;BME280;35601;55.902;13.606;2023-04-30T02:54:26;100990.61;;;1.22;73.58
49709;BME280;35601;55.902;13.606;2023-04-30T02:56:51;100995.62;;;1.20;73.79
49709;BME280;35601;55.902;13.606;2023-04-30T02:59:16;100997.40;;;1.11;74.53
49709;BME280;35601;55.902;13.606;2023-04-30T03:01:41;100996.75;;;1.37;74.36
49709;BME280;35601;55.902;13.606;2023-04-30T03:04:07;100995.99;;;1.19;74.42
49709;BME280;35601;55.902;13.606;2023-04-30T03:06:32;100997.93;;;1.40;75.33
49709;BME280;35601;55.902;13.606;2023-04-30T03:08:57;100997.87;;;1.46;75.05
49709;BME280;35601;55.902;13.606;2023-04-30T03:11:23;100997.34;;;1.47;74.57
49709;BME280;35601;55.902;13.606;2023-04-30T03:13:48;100997.72;;;1.33;73.78
49709;BME280;35601;55.902;13.606;2023-04-30T03:16:12;100996.81;;;1.25;74.94
49709;BME280;35601;55.902;13.606;2023-04-30T03:18:38;100998.59;;;0.98;75.66
49709;BME280;35601;55.902;13.606;2023-04-30T03:21:03;101000.31;;;1.30;75.65
49709;BME280;35601;55.902;13.606;2023-04-30T03:23:29;101000.25;;;1.29;75.13
49709;BME280;35601;55.902;13.606;2023-04-30T03:25:54;101003.21;;;1.31;75.07
49709;BME280;35601;55.902;13.606;2023-04-30T03:28:19;101004.99;;;1.34;74.65
49709;BME280;35601;55.902;13.606;2023-04-30T03:30:44;101003.53;;;1.37;74.08
49709;BME280;35601;55.902;13.606;2023-04-30T03:33:10;101005.09;;;1.34;74.24
49709;BME280;35601;55.902;13.606;2023-04-30T03:35:34;101006.82;;;1.36;74.31
49709;BME280;35601;55.902;13.606;2023-04-30T03:38:01;101006.49;;;1.39;73.75
49709;BME280;35601;55.902;13.606;2023-04-30T03:40:26;101011.71;;;1.37;74.12
49709;BME280;35601;55.902;13.606;2023-04-30T03:42:51;101013.43;;;1.48;73.53
49709;BME280;35601;55.902;13.606;2023-04-30T03:45:17;101016.12;;;1.64;74.16
49709;BME280;35601;55.902;13.606;2023-04-30T03:47:42;101018.65;;;1.45;74.29
49709;BME280;35601;55.902;13.606;2023-04-30T03:50:08;101020.14;;;1.58;74.05
49709;BME280;35601;55.902;13.606;2023-04-30T03:52:33;101023.05;;;1.39;73.88
49709;BME280;35601;55.902;13.606;2023-04-30T03:54:58;101026.76;;;1.40;74.24
49709;BME280;35601;55.902;13.606;2023-04-30T03:57:24;101026.64;;;1.75;74.11
49709;BME280;35601;55.902;13.606;2023-04-30T03:59:49;101029.37;;;1.65;74.19
49709;BME280;35601;55.902;13.606;2023-04-30T04:02:14;101030.05;;;1.79;73.90
49709;BME280;35601;55.902;13.606;2023-04-30T04:04:39;101027.92;;;2.17;73.95
49709;BME280;35601;55.902;13.606;2023-04-30T04:07:04;101030.32;;;2.28;73.74
49709;BME280;35601;55.902;13.606;2023-04-30T04:09:29;101032.12;;;2.18;73.43
49709;BME280;35601;55.902;13.606;2023-04-30T04:11:55;101032.08;;;2.34;72.75
49709;BME280;35601;55.902;13.606;2023-04-30T04:14:22;101036.67;;;2.26;71.86
49709;BME280;35601;55.902;13.606;2023-04-30T04:16:46;101041.53;;;2.40;70.75
49709;BME280;35601;55.902;13.606;2023-04-30T04:19:11;101039.61;;;2.49;70.44
49709;BME280;35601;55.902;13.606;2023-04-30T04:21:36;101040.69;;;2.66;70.06
49709;BME280;35601;55.902;13.606;2023-04-30T04:24:03;101042.33;;;2.73;69.85
49709;BME280;35601;55.902;13.606;2023-04-30T04:26:27;101045.23;;;2.77;69.12
49709;BME280;35601;55.902;13.606;2023-04-30T04:28:52;101048.94;;;2.31;69.38
49709;BME280;35601;55.902;13.606;2023-04-30T04:31:17;101055.77;;;2.68;69.80
49709;BME280;35601;55.902;13.606;2023-04-30T04:33:43;101059.05;;;2.71;70.15
49709;BME280;35601;55.902;13.606;2023-04-30T04:36:08;101054.88;;;3.01;70.07
49709;BME280;35601;55.902;13.606;2023-04-30T04:38:34;101057.84;;;2.79;70.79
49709;BME280;35601;55.902;13.606;2023-04-30T04:41:00;101062.82;;;3.12;70.87
49709;BME280;35601;55.902;13.606;2023-04-30T04:43:25;101063.99;;;3.05;72.71
49709;BME280;35601;55.902;13.606;2023-04-30T04:45:50;101063.18;;;3.05;72.42
49709;BME280;35601;55.902;13.606;2023-04-30T04:48:16;101067.32;;;2.34;70.95
49709;BME280;35601;55.902;13.606;2023-04-30T04:50:41;101061.11;;;2.10;69.47
49709;BME280;35601;55.902;13.606;2023-04-30T04:53:06;101064.41;;;2.41;69.30
49709;BME280;35601;55.902;13.606;2023-04-30T04:55:32;101066.74;;;2.93;66.06
49709;BME280;35601;55.902;13.606;2023-04-30T04:57:58;101071.57;;;2.86;62.69
49709;BME280;35601;55.902;13.606;2023-04-30T05:00:22;101070.01;;;4.61;61.72
49709;BME280;35601;55.902;13.606;2023-04-30T05:02:47;101074.08;;;4.60;60.88
49709;BME280;35601;55.902;13.606;2023-04-30T05:05:13;101083.18;;;4.85;61.61
49709;BME280;35601;55.902;13.606;2023-04-30T05:07:41;101076.59;;;5.24;61.81
49709;BME280;35601;55.902;13.606;2023-04-30T05:10:07;101081.18;;;5.14;60.86
49709;BME280;35601;55.902;13.606;2023-04-30T05:12:29;101076.20;;;5.31;60.32
49709;BME280;35601;55.902;13.606;2023-04-30T05:14:55;101074.37;;;5.22;60.09
49709;BME280;35601;55.902;13.606;2023-04-30T05:17:20;101074.19;;;5.32;58.23
49709;BME280;35601;55.902;13.606;2023-04-30T05:19:46;101076.97;;;5.42;57.98
49709;BME280;35601;55.902;13.606;2023-04-30T05:22:10;101084.17;;;5.62;56.99
49709;BME280;35601;55.902;13.606;2023-04-30T05:24:36;101084.64;;;5.93;56.99
49709;BME280;35601;55.902;13.606;2023-04-30T05:27:01;101085.33;;;5.74;56.27
49709;BME280;35601;55.902;13.606;2023-04-30T05:29:27;101086.52;;;6.01;54.87
49709;BME280;35601;55.902;13.606;2023-04-30T05:31:51;101085.82;;;6.45;54.28
49709;BME280;35601;55.902;13.606;2023-04-30T05:34:17;101086.21;;;6.44;52.78
49709;BME280;35601;55.902;13.606;2023-04-30T05:36:43;101083.72;;;6.45;53.09
49709;BME280;35601;55.902;13.606;2023-04-30T05:39:07;101088.54;;;6.73;51.79
49709;BME280;35601;55.902;13.606;2023-04-30T05:41:32;101090.60;;;6.99;52.06
49709;BME280;35601;55.902;13.606;2023-04-30T05:43:58;101091.87;;;7.20;50.72
49709;BME280;35601;55.902;13.606;2023-04-30T05:46:24;101085.25;;;7.10;49.59
49709;BME280;35601;55.902;13.606;2023-04-30T05:48:49;101090.57;;;7.21;47.42
49709;BME280;35601;55.902;13.606;2023-04-30T05:51:15;101096.98;;;7.30;46.38
49709;BME280;35601;55.902;13.606;2023-04-30T05:53:40;101095.70;;;6.96;47.89
49709;BME280;35601;55.902;13.606;2023-04-30T05:56:06;101097.94;;;6.83;45.83
49709;BME280;35601;55.902;13.606;2023-04-30T05:58:30;101098.29;;;6.54;46.26
49709;BME280;35601;55.902;13.606;2023-04-30T06:00:57;101096.99;;;6.81;47.73
49709;BME280;35601;55.902;13.606;2023-04-30T06:03:22;101100.46;;;6.74;45.81
49709;BME280;35601;55.902;13.606;2023-04-30T06:05:48;101099.37;;;6.54;46.39
49709;BME280;35601;55.902;13.606;2023-04-30T06:08:14;101103.91;;;6.66;45.92
49709;BME280;35601;55.902;13.606;2023-04-30T06:10:39;101109.91;;;6.33;45.67
49709;BME280;35601;55.902;13.606;2023-04-30T06:13:06;101115.68;;;6.07;45.44
49709;BME280;35601;55.902;13.606;2023-04-30T06:15:32;101116.46;;;6.05;46.07
49709;BME280;35601;55.902;13.606;2023-04-30T06:17:56;101116.44;;;5.77;44.17
49709;BME280;35601;55.902;13.606;2023-04-30T06:20:20;101124.79;;;5.50;44.81
49709;BME280;35601;55.902;13.606;2023-04-30T06:22:45;101126.48;;;5.37;45.23
49709;BME280;35601;55.902;13.606;2023-04-30T06:25:11;101130.53;;;5.26;45.64
49709;BME280;35601;55.902;13.606;2023-04-30T06:27:36;101130.41;;;5.69;45.48
49709;BME280;35601;55.902;13.606;2023-04-30T06:30:02;101130.92;;;5.66;46.27
49709;BME280;35601;55.902;13.606;2023-04-30T06:32:27;101127.48;;;5.77;44.69
49709;BME280;35601;55.902;13.606;2023-04-30T06:34:52;101139.71;;;5.40;45.59
49709;BME280;35601;55.902;13.606;2023-04-30T06:37:17;101140.62;;;5.64;45.06
49709;BME280;35601;55.902;13.606;2023-04-30T06:39:44;101136.41;;;5.91;45.46
49709;BME280;35601;55.902;13.606;2023-04-30T06:42:08;101142.48;;;5.26;45.41
49709;BME280;35601;55.902;13.606;2023-04-30T06:44:33;101136.85;;;5.68;45.50
49709;BME280;35601;55.902;13.606;2023-04-30T06:47:00;101143.00;;;5.53;43.62
49709;BME280;35601;55.902;13.606;2023-04-30T06:49:24;101142.58;;;5.49;45.41
49709;BME280;35601;55.902;13.606;2023-04-30T06:51:49;101149.61;;;5.50;45.06
49709;BME280;35601;55.902;13.606;2023-04-30T06:54:16;101146.42;;;5.49;45.39
49709;BME280;35601;55.902;13.606;2023-04-30T06:56:40;101145.19;;;5.62;43.81
49709;BME280;35601;55.902;13.606;2023-04-30T06:59:05;101147.61;;;5.82;43.31
49709;BME280;35601;55.902;13.606;2023-04-30T07:01:30;101146.39;;;5.73;44.34
49709;BME280;35601;55.902;13.606;2023-04-30T07:03:55;101141.07;;;5.75;42.88
49709;BME280;35601;55.902;13.606;2023-04-30T07:06:22;101141.65;;;6.11;43.30
49709;BME280;35601;55.902;13.606;2023-04-30T07:08:47;101142.87;;;5.89;42.06
49709;BME280;35601;55.902;13.606;2023-04-30T07:11:11;101144.78;;;6.35;42.30
49709;BME280;35601;55.902;13.606;2023-04-30T07:13:37;101143.11;;;6.39;41.18
49709;BME280;35601;55.902;13.606;2023-04-30T07:16:02;101144.35;;;6.68;42.04
49709;BME280;35601;55.902;13.606;2023-04-30T07:18:29;101142.49;;;6.36;41.43
49709;BME280;35601;55.902;13.606;2023-04-30T07:20:54;101145.56;;;7.02;42.07
49709;BME280;35601;55.902;13.606;2023-04-30T07:23:19;101151.20;;;7.12;41.99
49709;BME280;35601;55.902;13.606;2023-04-30T07:25:43;101155.26;;;6.74;41.67
49709;BME280;35601;55.902;13.606;2023-04-30T07:28:08;101157.86;;;6.79;40.96
49709;BME280;35601;55.902;13.606;2023-04-30T07:30:34;101158.26;;;6.69;40.79
49709;BME280;35601;55.902;13.606;2023-04-30T07:32:59;101170.49;;;6.83;41.62
49709;BME280;35601;55.902;13.606;2023-04-30T07:35:24;101174.52;;;6.37;40.78
49709;BME280;35601;55.902;13.606;2023-04-30T07:37:50;101174.76;;;6.71;41.84
49709;BME280;35601;55.902;13.606;2023-04-30T07:40:16;101173.95;;;7.02;40.03
49709;BME280;35601;55.902;13.606;2023-04-30T07:42:40;101173.45;;;6.79;40.36
49709;BME280;35601;55.902;13.606;2023-04-30T07:45:06;101176.09;;;6.64;40.39
49709;BME280;35601;55.902;13.606;2023-04-30T07:47:33;101189.19;;;6.48;40.34
49709;BME280;35601;55.902;13.606;2023-04-30T07:49:58;101185.25;;;6.74;40.23
49709;BME280;35601;55.902;13.606;2023-04-30T07:52:23;101187.46;;;6.75;40.62
49709;BME280;35601;55.902;13.606;2023-04-30T07:54:47;101184.00;;;6.65;40.41
49709;BME280;35601;55.902;13.606;2023-04-30T07:57:14;101177.78;;;6.68;40.67
49709;BME280;35601;55.902;13.606;2023-04-30T07:59:37;101172.10;;;7.23;42.11
49709;BME280;35601;55.902;13.606;2023-04-30T08:02:03;101179.25;;;6.99;39.92
49709;BME280;35601;55.902;13.606;2023-04-30T08:04:28;101189.66;;;7.20;39.85
49709;BME280;35601;55.902;13.606;2023-04-30T08:06:53;101191.13;;;6.44;39.04
49709;BME280;35601;55.902;13.606;2023-04-30T08:09:18;101190.36;;;7.01;39.08
49709;BME280;35601;55.902;13.606;2023-04-30T08:11:45;101190.45;;;7.13;39.29
49709;BME280;35601;55.902;13.606;2023-04-30T08:14:09;101192.92;;;7.24;39.01
49709;BME280;35601;55.902;13.606;2023-04-30T08:16:34;101188.89;;;7.38;38.67
49709;BME280;35601;55.902;13.606;2023-04-30T08:19:00;101195.83;;;7.14;38.05
49709;BME280;35601;55.902;13.606;2023-04-30T08:21:25;101202.80;;;7.48;38.75
49709;BME280;35601;55.902;13.606;2023-04-30T08:23:50;101202.72;;;7.57;38.20
49709;BME280;35601;55.902;13.606;2023-04-30T08:26:15;101196.97;;;7.86;37.21
49709;BME280;35601;55.902;13.606;2023-04-30T08:28:41;101207.04;;;8.06;37.99
49709;BME280;35601;55.902;13.606;2023-04-30T08:31:06;101206.44;;;8.20;36.23
49709;BME280;35601;55.902;13.606;2023-04-30T08:33:31;101208.03;;;8.29;36.65
49709;BME280;35601;55.902;13.606;2023-04-30T08:35:56;101207.62;;;8.44;35.84
49709;BME280;35601;55.902;13.606;2023-04-30T08:38:22;101213.62;;;8.36;36.13
49709;BME280;35601;55.902;13.606;2023-04-30T08:40:54;101218.64;;;8.22;35.16
49709;BME280;35601;55.902;13.606;2023-04-30T08:43:13;101218.40;;;8.23;36.12
49709;BME280;35601;55.902;13.606;2023-04-30T08:45:38;101216.83;;;8.44;36.21
49709;BME280;35601;55.902;13.606;2023-04-30T08:48:09;101215.10;;;8.42;35.30
49709;BME280;35601;55.902;13.606;2023-04-30T08:50:30;101222.42;;;8.55;36.09
49709;BME280;35601;55.902;13.606;2023-04-30T08:52:54;101223.51;;;8.47;36.01
49709;BME280;35601;55.902;13.606;2023-04-30T08:55:21;101229.87;;;8.27;37.21
49709;BME280;35601;55.902;13.606;2023-04-30T08:57:44;101226.70;;;8.24;36.01
49709;BME280;35601;55.902;13.606;2023-04-30T09:00:11;101230.46;;;8.06;36.58
49709;BME280;35601;55.902;13.606;2023-04-30T09:02:40;101244.44;;;7.24;37.47
49709;BME280;35601;55.902;13.606;2023-04-30T09:05:00;101240.65;;;7.15;37.11
49709;BME280;35601;55.902;13.606;2023-04-30T09:07:31;101244.80;;;7.84;37.74
49709;BME280;35601;55.902;13.606;2023-04-30T09:09:53;101255.12;;;7.81;37.24
49709;BME280;35601;55.902;13.606;2023-04-30T09:12:17;101253.29;;;7.67;36.80
49709;BME280;35601;55.902;13.606;2023-04-30T09:17:07;101256.08;;;7.85;37.06
49709;BME280;35601;55.902;13.606;2023-04-30T09:19:33;101256.70;;;7.91;36.14
49709;BME280;35601;55.902;13.606;2023-04-30T09:21:58;101258.10;;;7.92;35.85
49709;BME280;35601;55.902;13.606;2023-04-30T09:24:23;101266.18;;;7.88;36.56
49709;BME280;35601;55.902;13.606;2023-04-30T09:26:48;101268.42;;;8.03;36.98
49709;BME280;35601;55.902;13.606;2023-04-30T09:29:13;101261.21;;;8.18;38.99
49709;BME280;35601;55.902;13.606;2023-04-30T09:31:41;101257.31;;;8.61;35.47
49709;BME280;35601;55.902;13.606;2023-04-30T09:34:05;101254.26;;;8.62;36.28
49709;BME280;35601;55.902;13.606;2023-04-30T09:36:31;101252.49;;;9.15;35.15
49709;BME280;35601;55.902;13.606;2023-04-30T09:38:54;101255.96;;;9.40;34.66
49709;BME280;35601;55.902;13.606;2023-04-30T09:41:21;101251.21;;;9.40;34.63
49709;BME280;35601;55.902;13.606;2023-04-30T09:43:45;101252.68;;;9.29;34.00
49709;BME280;35601;55.902;13.606;2023-04-30T09:46:10;101262.13;;;9.67;34.18
49709;BME280;35601;55.902;13.606;2023-04-30T09:48:40;101263.34;;;9.93;33.39
49709;BME280;35601;55.902;13.606;2023-04-30T09:51:02;101261.26;;;9.89;33.36
49709;BME280;35601;55.902;13.606;2023-04-30T09:53:25;101266.44;;;9.81;33.80
49709;BME280;35601;55.902;13.606;2023-04-30T09:55:51;101260.91;;;9.52;32.77
49709;BME280;35601;55.902;13.606;2023-04-30T09:58:18;101269.42;;;9.40;33.49
49709;BME280;35601;55.902;13.606;2023-04-30T10:00:43;101274.43;;;9.70;32.84
49709;BME280;35601;55.902;13.606;2023-04-30T10:03:08;101272.27;;;9.51;32.96
49709;BME280;35601;55.902;13.606;2023-04-30T10:05:35;101274.05;;;9.84;32.66
49709;BME280;35601;55.902;13.606;2023-04-30T10:07:59;101273.55;;;9.27;33.09
49709;BME280;35601;55.902;13.606;2023-04-30T10:10:26;101273.79;;;8.94;33.41
49709;BME280;35601;55.902;13.606;2023-04-30T10:12:50;101270.41;;;8.80;33.31
49709;BME280;35601;55.902;13.606;2023-04-30T10:15:16;101280.01;;;8.56;34.74
49709;BME280;35601;55.902;13.606;2023-04-30T10:17:40;101279.47;;;8.56;35.39
49709;BME280;35601;55.902;13.606;2023-04-30T10:20:06;101274.77;;;9.07;35.39
49709;BME280;35601;55.902;13.606;2023-04-30T10:22:29;101271.57;;;9.01;34.15
49709;BME280;35601;55.902;13.606;2023-04-30T10:24:54;101264.99;;;9.13;34.17
49709;BME280;35601;55.902;13.606;2023-04-30T10:27:20;101262.50;;;9.42;36.06
49709;BME280;35601;55.902;13.606;2023-04-30T10:29:45;101263.84;;;9.75;33.80
49709;BME280;35601;55.902;13.606;2023-04-30T10:32:11;101261.55;;;10.02;35.82
49709;BME280;35601;55.902;13.606;2023-04-30T10:34:44;101257.14;;;10.38;33.43
49709;BME280;35601;55.902;13.606;2023-04-30T10:37:06;101267.61;;;10.02;32.74
49709;BME280;35601;55.902;13.606;2023-04-30T10:39:26;101256.04;;;10.41;33.02
49709;BME280;35601;55.902;13.606;2023-04-30T10:41:51;101263.08;;;9.75;33.29
49709;BME280;35601;55.902;13.606;2023-04-30T10:44:21;101273.46;;;9.52;33.24
49709;BME280;35601;55.902;13.606;2023-04-30T10:46:41;101272.31;;;9.46;34.10
49709;BME280;35601;55.902;13.606;2023-04-30T10:49:06;101269.76;;;9.90;33.64
49709;BME280;35601;55.902;13.606;2023-04-30T10:51:46;101269.75;;;9.74;33.28
49709;BME280;35601;55.902;13.606;2023-04-30T10:53:57;101265.92;;;9.72;32.60
49709;BME280;35601;55.902;13.606;2023-04-30T10:56:30;101272.83;;;10.05;33.11
49709;BME280;35601;55.902;13.606;2023-04-30T10:58:49;101265.35;;;10.08;32.32
49709;BME280;35601;55.902;13.606;2023-04-30T11:01:13;101273.97;;;9.50;32.67
49709;BME280;35601;55.902;13.606;2023-04-30T11:03:40;101272.63;;;9.99;33.47
49709;BME280;35601;55.902;13.606;2023-04-30T11:06:10;101270.61;;;10.33;33.41
49709;BME280;35601;55.902;13.606;2023-04-30T11:08:32;101276.68;;;10.24;32.67
49709;BME280;35601;55.902;13.606;2023-04-30T11:10:58;101273.44;;;10.46;32.33
49709;BME280;35601;55.902;13.606;2023-04-30T11:13:20;101271.76;;;10.70;31.71
49709;BME280;35601;55.902;13.606;2023-04-30T11:15:44;101276.26;;;10.42;31.86
49709;BME280;35601;55.902;13.606;2023-04-30T11:18:09;101269.23;;;10.26;32.00
49709;BME280;35601;55.902;13.606;2023-04-30T11:20:40;101273.96;;;9.62;32.57
49709;BME280;35601;55.902;13.606;2023-04-30T11:23:12;101265.01;;;9.55;33.07
49709;BME280;35601;55.902;13.606;2023-04-30T11:25:25;101266.72;;;9.37;33.20
49709;BME280;35601;55.902;13.606;2023-04-30T11:27:50;101266.78;;;9.68;33.01
49709;BME280;35601;55.902;13.606;2023-04-30T11:30:16;101258.65;;;9.81;32.87
49709;BME280;35601;55.902;13.606;2023-04-30T11:32:43;101274.90;;;10.15;32.12
49709;BME280;35601;55.902;13.606;2023-04-30T11:35:07;101269.78;;;10.13;32.10
49709;BME280;35601;55.902;13.606;2023-04-30T11:37:32;101269.92;;;10.35;32.03
49709;BME280;35601;55.902;13.606;2023-04-30T11:39:57;101272.45;;;10.49;31.98
49709;BME280;35601;55.902;13.606;2023-04-30T11:42:21;101265.83;;;10.97;31.79
49709;BME280;35601;55.902;13.606;2023-04-30T11:44:47;101269.74;;;11.07;31.43
49709;BME280;35601;55.902;13.606;2023-04-30T11:47:12;101262.38;;;10.90;31.55
49709;BME280;35601;55.902;13.606;2023-04-30T11:49:37;101255.79;;;11.08;30.56
49709;BME280;35601;55.902;13.606;2023-04-30T11:52:02;101261.79;;;11.56;30.77
49709;BME280;35601;55.902;13.606;2023-04-30T11:54:31;101264.15;;;11.58;30.73
49709;BME280;35601;55.902;13.606;2023-04-30T11:56:53;101261.39;;;12.08;32.04
49709;BME280;35601;55.902;13.606;2023-04-30T11:59:18;101277.91;;;11.86;30.33
49709;BME280;35601;55.902;13.606;2023-04-30T12:01:44;101275.95;;;11.34;29.91
49709;BME280;35601;55.902;13.606;2023-04-30T12:04:09;101274.86;;;11.33;30.46
49709;BME280;35601;55.902;13.606;2023-04-30T12:06:34;101273.77;;;11.31;30.92
49709;BME280;35601;55.902;13.606;2023-04-30T12:09:02;101272.13;;;11.55;31.01
49709;BME280;35601;55.902;13.606;2023-04-30T12:11:25;101277.34;;;11.55;30.96
49709;BME280;35601;55.902;13.606;2023-04-30T12:13:51;101273.88;;;10.98;31.05
49709;BME280;35601;55.902;13.606;2023-04-30T12:16:15;101285.41;;;10.15;31.98
49709;BME280;35601;55.902;13.606;2023-04-30T12:18:40;101286.62;;;10.20;31.71
49709;BME280;35601;55.902;13.606;2023-04-30T12:21:05;101288.87;;;10.09;31.95
49709;BME280;35601;55.902;13.606;2023-04-30T12:23:31;101284.61;;;9.95;31.83
49709;BME280;35601;55.902;13.606;2023-04-30T12:25:58;101279.22;;;10.25;33.19
49709;BME280;35601;55.902;13.606;2023-04-30T12:28:22;101280.85;;;10.66;33.11
49709;BME280;35601;55.902;13.606;2023-04-30T12:30:47;101282.21;;;10.36;31.87
49709;BME280;35601;55.902;13.606;2023-04-30T12:33:12;101282.82;;;10.55;31.97
49709;BME280;35601;55.902;13.606;2023-04-30T12:35:42;101281.28;;;10.50;31.36
49709;BME280;35601;55.902;13.606;2023-04-30T12:38:05;101282.98;;;10.12;32.06
49709;BME280;35601;55.902;13.606;2023-04-30T12:40:28;101277.47;;;9.85;31.81